createdAt,value
2022-10-14T00:00:01.294Z,0.00
2022-10-14T00:10:00.131Z,0.00
2022-10-14T00:20:00.159Z,0.00
2022-10-14T00:30:01.005Z,0.00
2022-10-14T00:40:01.077Z,0.00
2022-10-14T00:50:01.057Z,0.00
2022-10-14T01:00:01.027Z,0.00
2022-10-14T01:10:00.983Z,0.00
2022-10-14T01:20:01.838Z,0.00
2022-10-14T01:30:00.132Z,0.00
2022-10-14T01:40:01.088Z,0.00
2022-10-14T01:50:00.988Z,0.00
2022-10-14T02:00:01.092Z,0.00
2022-10-14T02:10:00.999Z,0.00
2022-10-14T02:20:01.261Z,0.00
2022-10-14T02:30:01.049Z,0.00
2022-10-14T02:40:01.203Z,0.00
2022-10-14T02:50:01.262Z,0.00
2022-10-14T03:00:01.448Z,0.00
2022-10-14T03:10:00.911Z,0.00
2022-10-14T03:20:01.151Z,0.00
2022-10-14T03:30:01.156Z,0.00
2022-10-14T03:40:00.976Z,0.00
2022-10-14T03:50:01.282Z,0.00
2022-10-14T04:00:01.002Z,0.00
2022-10-14T04:10:01.034Z,0.00
2022-10-14T04:20:00.142Z,0.00
2022-10-14T04:30:00.999Z,0.00
2022-10-14T04:40:01.123Z,0.00
2022-10-14T04:50:01.309Z,0.00
2022-10-14T05:00:00.995Z,0.57
2022-10-14T05:10:01.009Z,3.85
2022-10-14T05:20:01.300Z,8.33
2022-10-14T05:30:01.222Z,61.67
2022-10-14T05:40:01.010Z,71.67
2022-10-14T05:50:00.142Z,279.17
2022-10-14T06:00:00.162Z,206.67
2022-10-14T06:10:00.986Z,587.92
2022-10-14T06:20:01.224Z,368.33
2022-10-14T06:30:00.103Z,441.67
2022-10-14T06:40:01.002Z,548.33
2022-10-14T06:50:01.235Z,1392.50
2022-10-14T07:00:00.982Z,841.67
2022-10-14T07:10:01.163Z,1927.92
2022-10-14T07:20:01.508Z,1934.58
2022-10-14T07:30:01.027Z,1922.50
2022-10-14T07:40:01.233Z,2348.75
2022-10-14T07:50:01.497Z,2964.58
2022-10-14T08:00:00.148Z,1563.33
2022-10-14T08:10:00.973Z,2686.67
2022-10-14T08:20:01.070Z,2533.75
2022-10-14T08:30:01.022Z,2853.75
2022-10-14T08:40:01.182Z,3283.75
2022-10-14T08:50:01.068Z,5189.17
2022-10-14T09:00:01.084Z,4440.00
2022-10-14T09:10:00.121Z,4012.92
2022-10-14T09:20:01.289Z,4446.25
2022-10-14T09:30:02.177Z,5020.42
2022-10-14T09:40:00.175Z,4750.83
2022-10-14T09:50:01.091Z,2686.67
2022-10-14T10:00:01.774Z,6408.33
2022-10-14T10:10:01.159Z,6755.83
2022-10-14T10:20:01.000Z,8612.92
2022-10-14T10:30:01.337Z,3648.33
2022-10-14T10:40:01.276Z,8501.67
2022-10-14T10:50:01.224Z,8486.25
2022-10-14T11:00:01.782Z,4243.33
2022-10-14T11:10:00.170Z,6302.08
2022-10-14T11:20:01.071Z,10252.92
2022-10-14T11:30:00.139Z,14297.92
2022-10-14T11:40:00.992Z,8277.50
2022-10-14T11:50:00.163Z,7182.50
2022-10-14T12:00:00.173Z,8783.75
2022-10-14T12:10:01.194Z,6844.58
2022-10-14T12:20:01.274Z,8877.92
2022-10-14T12:30:00.135Z,5128.33
2022-10-14T12:40:01.336Z,3603.33
2022-10-14T12:50:01.010Z,5122.08
2022-10-14T13:00:01.048Z,10947.08
2022-10-14T13:10:01.037Z,16983.75
2022-10-14T13:20:00.148Z,8715.42
2022-10-14T13:30:00.139Z,6990.42
2022-10-14T13:40:01.518Z,5275.83
2022-10-14T13:50:01.002Z,4065.00
2022-10-14T14:10:01.194Z,898.33
2022-10-14T14:20:01.269Z,1582.92
2022-10-14T14:30:00.964Z,1168.33
2022-10-14T14:40:01.001Z,2826.67
2022-10-14T14:50:25.218Z,11555.00
2022-10-14T15:00:01.265Z,3860.00
2022-10-14T15:10:00.140Z,1796.25
2022-10-14T15:20:01.151Z,580.00
2022-10-14T15:30:00.131Z,1639.17
2022-10-14T15:40:00.152Z,1550.42
2022-10-14T15:50:01.117Z,814.17
2022-10-14T16:00:01.269Z,453.33
2022-10-14T16:10:01.258Z,201.25
2022-10-14T16:20:01.178Z,82.92
2022-10-14T16:30:00.147Z,22.08
2022-10-14T16:40:01.344Z,2.60
2022-10-14T16:50:01.107Z,0.23
2022-10-14T17:00:00.268Z,0.00
2022-10-14T17:10:01.469Z,0.00
2022-10-14T17:20:02.001Z,0.00
2022-10-14T17:30:01.501Z,0.00
2022-10-14T17:40:01.135Z,0.00
2022-10-14T17:50:00.160Z,0.00
2022-10-14T18:00:01.081Z,0.00
2022-10-14T18:10:01.221Z,0.00
2022-10-14T18:20:01.298Z,0.00
2022-10-14T18:30:00.990Z,0.00
2022-10-14T18:40:00.155Z,0.00
2022-10-14T19:00:01.555Z,0.00
2022-10-14T19:10:01.301Z,0.00
2022-10-14T19:20:01.540Z,0.00
2022-10-14T19:30:01.335Z,0.00
2022-10-14T19:40:01.562Z,0.00
2022-10-14T19:50:03.058Z,0.00
2022-10-14T20:00:02.295Z,0.00
2022-10-14T20:10:02.637Z,0.00
2022-10-14T20:20:00.830Z,0.00
2022-10-14T20:30:02.711Z,0.00
2022-10-14T20:40:01.082Z,0.00
2022-10-14T20:50:03.201Z,0.00
2022-10-14T21:00:01.297Z,0.00
2022-10-14T21:10:01.279Z,0.00
2022-10-14T21:20:01.067Z,0.00
2022-10-14T21:30:00.241Z,0.00
2022-10-14T21:40:01.031Z,0.00
2022-10-14T21:50:01.109Z,0.00
2022-10-14T22:00:01.066Z,0.00
2022-10-14T22:10:01.058Z,0.00
2022-10-14T22:20:00.976Z,0.00
2022-10-14T22:30:01.302Z,0.00
2022-10-14T22:40:03.534Z,0.00
2022-10-14T22:50:02.761Z,0.00
2022-10-14T23:00:01.275Z,0.00
2022-10-14T23:10:01.212Z,0.00
2022-10-14T23:20:00.159Z,0.00
2022-10-14T23:30:02.370Z,0.00
2022-10-14T23:50:01.081Z,0.00
